createdAt,value
2023-11-17T00:01:18.430Z,11.11
2023-11-17T00:03:53.475Z,10.96
2023-11-17T00:06:23.177Z,11.20
2023-11-17T00:08:52.645Z,11.61
2023-11-17T00:11:21.427Z,11.17
2023-11-17T00:13:51.248Z,11.25
2023-11-17T00:16:21.124Z,11.19
2023-11-17T00:18:53.443Z,11.24
2023-11-17T00:21:22.975Z,11.47
2023-11-17T00:23:51.813Z,11.53
2023-11-17T00:26:21.717Z,11.37
2023-11-17T00:28:56.296Z,11.36
2023-11-17T00:31:26.461Z,11.25
2023-11-17T00:33:56.846Z,11.45
2023-11-17T00:36:25.626Z,11.43
2023-11-17T00:38:54.840Z,11.51
2023-11-17T00:41:30.276Z,11.63
2023-11-17T00:44:00.259Z,11.50
2023-11-17T00:46:31.609Z,11.66
2023-11-17T00:49:06.235Z,11.64
2023-11-17T00:51:35.800Z,11.41
2023-11-17T00:54:05.725Z,11.59
2023-11-17T00:56:35.100Z,11.49
2023-11-17T00:59:04.813Z,11.23
2023-11-17T01:01:35.827Z,11.12
2023-11-17T01:04:06.788Z,10.96
2023-11-17T01:06:35.795Z,11.10
2023-11-17T01:09:05.536Z,11.44
2023-11-17T01:11:34.814Z,11.27
2023-11-17T01:14:09.767Z,11.56
2023-11-17T01:16:39.155Z,11.50
2023-11-17T01:19:09.541Z,11.32
2023-11-17T01:21:39.010Z,11.04
2023-11-17T01:24:10.213Z,11.33
2023-11-17T01:26:39.864Z,11.00
2023-11-17T01:29:10.142Z,11.14
2023-11-17T01:31:38.918Z,10.95
2023-11-17T01:34:09.312Z,11.36
2023-11-17T01:36:38.287Z,11.23
2023-11-17T01:39:10.374Z,11.31
2023-11-17T01:41:39.776Z,11.41
2023-11-17T01:44:08.654Z,11.23
2023-11-17T01:46:37.692Z,11.08
2023-11-17T01:49:07.263Z,11.11
2023-11-17T01:51:39.938Z,11.04
2023-11-17T01:54:10.759Z,10.95
2023-11-17T01:56:41.158Z,10.57
2023-11-17T01:59:10.528Z,10.91
2023-11-17T02:01:40.780Z,10.78
2023-11-17T02:04:11.227Z,10.98
2023-11-17T02:06:50.240Z,10.80
2023-11-17T02:09:31.826Z,10.52
2023-11-17T02:12:19.312Z,10.53
2023-11-17T02:14:51.392Z,10.95
2023-11-17T02:17:29.729Z,10.79
2023-11-17T02:20:12.667Z,10.99
2023-11-17T02:22:48.896Z,10.77
2023-11-17T02:25:30.065Z,10.92
2023-11-17T02:28:11.739Z,11.09
2023-11-17T02:30:43.058Z,10.96
2023-11-17T02:33:12.524Z,10.79
2023-11-17T02:35:45.074Z,10.92
2023-11-17T02:38:14.596Z,10.73
2023-11-17T02:40:47.475Z,10.83
2023-11-17T02:43:24.345Z,10.99
2023-11-17T02:45:55.367Z,10.82
2023-11-17T02:48:29.980Z,10.84
2023-11-17T02:51:19.936Z,11.18
2023-11-17T02:53:51.304Z,11.11
2023-11-17T02:56:22.841Z,11.06
2023-11-17T02:58:55.887Z,10.84
2023-11-17T03:01:27.265Z,10.93
2023-11-17T03:03:57.199Z,10.75
2023-11-17T03:06:26.723Z,10.74
2023-11-17T03:08:56.682Z,10.80
2023-11-17T03:11:26.220Z,10.40
2023-11-17T03:13:56.564Z,10.80
2023-11-17T03:16:27.725Z,10.73
2023-11-17T03:18:57.056Z,10.84
2023-11-17T03:21:26.618Z,10.81
2023-11-17T03:23:55.510Z,10.75
2023-11-17T03:26:24.776Z,10.82
2023-11-17T03:28:53.899Z,10.90
2023-11-17T03:31:23.077Z,11.17
2023-11-17T03:33:54.184Z,11.22
2023-11-17T03:36:25.818Z,11.04
2023-11-17T03:38:56.816Z,10.93
2023-11-17T03:41:26.196Z,11.04
2023-11-17T03:43:55.682Z,11.28
2023-11-17T03:46:26.697Z,10.93
2023-11-17T03:48:57.359Z,10.84
2023-11-17T03:51:26.445Z,11.20
2023-11-17T03:53:55.959Z,11.02
2023-11-17T03:56:24.829Z,11.11
2023-11-17T03:58:53.960Z,10.98
2023-11-17T04:01:23.472Z,10.70
2023-11-17T04:03:52.940Z,11.30
2023-11-17T04:06:23.687Z,10.67
2023-11-17T04:08:53.778Z,10.79
2023-11-17T04:11:23.768Z,10.76
2023-11-17T04:13:53.862Z,10.66
2023-11-17T04:16:23.215Z,10.87
2023-11-17T04:18:52.940Z,10.73
2023-11-17T04:21:23.936Z,10.82
2023-11-17T04:23:53.680Z,10.96
2023-11-17T04:26:22.723Z,10.80
2023-11-17T04:28:51.992Z,11.16
2023-11-17T04:31:21.474Z,11.10
2023-11-17T04:33:50.913Z,10.94
2023-11-17T04:36:22.578Z,10.94
2023-11-17T04:38:53.695Z,11.14
2023-11-17T04:41:24.501Z,10.80
2023-11-17T04:43:54.036Z,11.04
2023-11-17T04:46:23.143Z,10.93
2023-11-17T04:48:52.470Z,10.88
2023-11-17T04:51:21.906Z,10.77
2023-11-17T04:53:51.241Z,10.88
2023-11-17T04:56:21.867Z,10.89
2023-11-17T04:58:51.258Z,10.50
2023-11-17T05:01:20.639Z,10.53
2023-11-17T05:03:49.722Z,10.66
2023-11-17T05:06:24.033Z,10.32
2023-11-17T05:08:53.204Z,10.28
2023-11-17T05:11:25.074Z,10.69
2023-11-17T05:13:54.259Z,10.56
2023-11-17T05:16:24.007Z,10.46
2023-11-17T05:18:53.418Z,9.88
2023-11-17T05:21:22.828Z,10.03
2023-11-17T05:23:51.890Z,10.13
2023-11-17T05:26:20.997Z,10.22
2023-11-17T05:28:51.568Z,10.45
2023-11-17T05:31:22.061Z,10.67
2023-11-17T05:33:50.936Z,10.69
2023-11-17T05:36:20.343Z,10.66
2023-11-17T05:38:50.180Z,10.69
2023-11-17T05:41:23.364Z,10.80
2023-11-17T05:43:54.804Z,10.88
2023-11-17T05:46:24.196Z,10.92
2023-11-17T05:48:56.117Z,10.94
2023-11-17T05:51:25.715Z,11.23
2023-11-17T05:53:54.835Z,11.23
2023-11-17T05:56:23.611Z,11.11
2023-11-17T05:58:54.196Z,10.98
2023-11-17T06:01:24.934Z,10.86
2023-11-17T06:03:54.887Z,11.15
2023-11-17T06:06:24.662Z,11.14
2023-11-17T06:08:54.272Z,11.09
2023-11-17T06:11:27.153Z,10.99
2023-11-17T06:13:58.063Z,11.18
2023-11-17T06:16:27.858Z,11.28
2023-11-17T06:18:58.104Z,11.17
2023-11-17T06:21:27.419Z,11.21
2023-11-17T06:24:00.230Z,11.30
2023-11-17T06:26:29.472Z,11.37
2023-11-17T06:29:02.671Z,11.66
2023-11-17T06:31:34.095Z,11.44
2023-11-17T06:34:03.243Z,11.38
2023-11-17T06:36:32.609Z,11.27
2023-11-17T06:39:01.537Z,11.43
2023-11-17T06:41:32.426Z,11.64
2023-11-17T06:44:02.976Z,11.61
2023-11-17T06:46:32.308Z,11.60
2023-11-17T06:49:03.236Z,11.81
2023-11-17T06:51:32.987Z,11.49
2023-11-17T06:54:05.348Z,11.45
2023-11-17T06:56:34.482Z,11.23
2023-11-17T06:59:09.489Z,11.64
2023-11-17T07:01:39.834Z,11.48
2023-11-17T07:04:10.103Z,11.64
2023-11-17T07:06:40.868Z,11.58
2023-11-17T07:09:17.847Z,11.41
2023-11-17T07:11:49.390Z,11.53
2023-11-17T07:14:21.190Z,11.62
2023-11-17T07:16:50.555Z,11.76
2023-11-17T07:19:21.427Z,11.62
2023-11-17T07:21:51.988Z,11.68
2023-11-17T07:24:24.839Z,11.94
2023-11-17T07:26:59.397Z,11.71
2023-11-17T07:29:33.251Z,11.79
2023-11-17T07:32:02.415Z,12.01
2023-11-17T07:34:32.015Z,11.88
2023-11-17T07:37:02.197Z,12.18
2023-11-17T07:39:31.519Z,12.17
2023-11-17T07:41:59.223Z,12.12
2023-11-17T07:44:32.237Z,12.41
2023-11-17T07:47:05.913Z,12.25
2023-11-17T07:49:36.094Z,12.61
2023-11-17T07:52:05.710Z,12.76
2023-11-17T07:54:34.916Z,12.69
2023-11-17T07:57:04.288Z,12.96
2023-11-17T07:59:34.984Z,12.95
2023-11-17T08:02:07.359Z,12.26
2023-11-17T08:04:37.714Z,12.59
2023-11-17T08:07:07.389Z,12.64
2023-11-17T08:09:38.532Z,12.41
2023-11-17T08:12:08.909Z,12.37
2023-11-17T08:14:39.556Z,12.56
2023-11-17T08:17:09.174Z,12.64
2023-11-17T08:19:40.920Z,12.74
2023-11-17T08:22:30.805Z,12.41
2023-11-17T08:25:00.249Z,12.71
2023-11-17T08:27:29.402Z,12.61
2023-11-17T08:29:59.869Z,12.34
2023-11-17T08:32:29.175Z,12.63
2023-11-17T08:34:58.387Z,12.49
2023-11-17T08:37:27.314Z,12.34
2023-11-17T08:39:56.681Z,12.56
2023-11-17T08:42:25.618Z,12.30
2023-11-17T08:44:54.434Z,12.10
2023-11-17T08:47:26.416Z,12.23
2023-11-17T08:49:55.720Z,12.70
2023-11-17T08:52:25.458Z,12.93
2023-11-17T08:55:01.602Z,13.83
2023-11-17T08:57:32.276Z,13.77
2023-11-17T09:00:02.250Z,13.41
2023-11-17T09:02:32.927Z,13.16
2023-11-17T09:05:02.146Z,13.13
2023-11-17T09:07:31.435Z,12.84
2023-11-17T09:10:00.385Z,12.73
2023-11-17T09:12:33.134Z,12.28
2023-11-17T09:15:02.450Z,12.00
2023-11-17T09:17:36.007Z,11.92
2023-11-17T09:20:09.681Z,11.72
2023-11-17T09:22:43.109Z,11.54
2023-11-17T09:25:17.024Z,11.81
2023-11-17T09:27:49.650Z,11.45
2023-11-17T09:30:19.203Z,11.53
2023-11-17T09:32:51.436Z,11.42
2023-11-17T09:35:23.061Z,11.13
2023-11-17T09:37:54.696Z,10.65
2023-11-17T09:40:25.826Z,11.05
2023-11-17T09:42:56.535Z,10.91
2023-11-17T09:45:34.130Z,10.85
2023-11-17T09:48:04.550Z,10.83
2023-11-17T09:50:33.890Z,10.89
2023-11-17T09:53:03.070Z,11.08
2023-11-17T09:55:37.793Z,11.25
2023-11-17T09:58:11.426Z,11.40
2023-11-17T10:00:44.428Z,11.38
2023-11-17T10:03:15.931Z,11.14
2023-11-17T10:05:45.180Z,11.02
2023-11-17T10:08:21.645Z,11.04
2023-11-17T10:10:51.138Z,11.10
2023-11-17T10:13:21.969Z,10.97
2023-11-17T10:15:55.821Z,10.95
2023-11-17T10:18:31.262Z,10.86
2023-11-17T10:21:00.632Z,11.17
2023-11-17T10:23:34.095Z,11.24
2023-11-17T10:26:03.580Z,11.53
2023-11-17T10:28:32.771Z,11.48
2023-11-17T10:31:07.006Z,11.44
2023-11-17T10:33:41.669Z,11.71
2023-11-17T10:36:13.617Z,11.89
2023-11-17T10:38:46.622Z,11.93
2023-11-17T10:41:18.900Z,12.00
2023-11-17T10:43:51.128Z,12.11
2023-11-17T10:46:23.571Z,12.10
2023-11-17T10:49:00.191Z,11.91
2023-11-17T10:51:32.032Z,11.83
2023-11-17T10:54:05.622Z,11.86
2023-11-17T10:56:35.553Z,11.77
2023-11-17T10:59:06.737Z,11.68
2023-11-17T11:01:38.898Z,11.79
2023-11-17T11:04:11.362Z,11.77
2023-11-17T11:06:43.052Z,11.70
2023-11-17T11:09:18.804Z,11.60
2023-11-17T11:11:52.667Z,11.33
2023-11-17T11:14:22.219Z,11.49
2023-11-17T11:16:52.693Z,11.37
2023-11-17T11:19:26.597Z,11.44
2023-11-17T11:22:02.998Z,11.06
2023-11-17T11:24:37.952Z,11.01
2023-11-17T11:27:10.935Z,11.10
2023-11-17T11:29:44.308Z,10.84
2023-11-17T11:32:15.389Z,10.84
2023-11-17T11:34:46.163Z,10.61
2023-11-17T11:37:15.719Z,10.57
2023-11-17T11:39:47.029Z,10.88
2023-11-17T11:42:17.446Z,10.46
2023-11-17T11:44:48.771Z,10.54
2023-11-17T11:47:23.413Z,10.43
2023-11-17T11:49:55.952Z,10.29
2023-11-17T11:52:34.966Z,10.17
2023-11-17T11:55:08.308Z,10.21
2023-11-17T11:57:37.355Z,10.19
2023-11-17T12:00:18.421Z,9.97
2023-11-17T12:02:55.210Z,9.63
2023-11-17T12:05:30.560Z,9.48
2023-11-17T12:08:03.122Z,9.48
2023-11-17T12:10:40.269Z,9.63
2023-11-17T12:13:10.195Z,9.72
2023-11-17T12:15:47.634Z,9.48
2023-11-17T12:18:18.947Z,9.38
2023-11-17T12:20:49.606Z,9.64
2023-11-17T12:23:19.156Z,9.46
2023-11-17T12:25:48.400Z,9.30
2023-11-17T12:28:18.627Z,9.33
2023-11-17T12:30:48.524Z,9.17
2023-11-17T12:33:18.723Z,9.25
2023-11-17T12:35:49.664Z,9.42
2023-11-17T12:38:23.686Z,9.42
2023-11-17T12:41:06.715Z,9.40
2023-11-17T12:43:36.463Z,9.39
2023-11-17T12:46:09.358Z,9.28
2023-11-17T12:48:41.056Z,9.10
2023-11-17T12:51:17.169Z,9.06
2023-11-17T12:53:51.404Z,9.22
2023-11-17T12:56:22.305Z,9.38
2023-11-17T12:58:51.820Z,9.34
2023-11-17T13:01:22.221Z,9.13
2023-11-17T13:04:03.837Z,9.21
2023-11-17T13:06:34.710Z,9.32
2023-11-17T13:09:11.303Z,9.15
2023-11-17T13:11:44.204Z,9.29
2023-11-17T13:14:22.051Z,8.98
2023-11-17T13:16:52.010Z,9.15
2023-11-17T13:19:22.189Z,9.27
2023-11-17T13:21:55.076Z,9.33
2023-11-17T13:24:24.622Z,9.17
2023-11-17T13:26:54.011Z,8.99
2023-11-17T13:29:24.142Z,9.06
2023-11-17T13:32:03.107Z,9.13
2023-11-17T13:34:34.473Z,9.10
2023-11-17T13:37:08.280Z,9.02
2023-11-17T13:39:38.147Z,9.05
2023-11-17T13:42:12.142Z,9.06
2023-11-17T13:44:42.298Z,9.14
2023-11-17T13:47:15.100Z,9.24
2023-11-17T13:49:45.085Z,9.03
2023-11-17T13:52:19.058Z,9.35
2023-11-17T13:54:50.338Z,9.23
2023-11-17T13:57:18.624Z,9.27
2023-11-17T13:59:50.856Z,9.09
2023-11-17T14:02:22.602Z,9.13
2023-11-17T14:04:55.917Z,8.95
2023-11-17T14:07:26.215Z,8.97
2023-11-17T14:09:56.755Z,9.04
2023-11-17T14:12:26.441Z,8.80
2023-11-17T14:14:56.073Z,8.93
2023-11-17T14:17:25.151Z,8.94
2023-11-17T14:19:55.064Z,8.91
2023-11-17T14:22:27.685Z,8.88
2023-11-17T14:25:02.682Z,8.76
2023-11-17T14:27:32.197Z,8.59
2023-11-17T14:30:01.624Z,8.67
2023-11-17T14:32:35.796Z,8.78
2023-11-17T14:35:06.598Z,8.67
2023-11-17T14:37:39.713Z,8.60
2023-11-17T14:40:12.174Z,8.97
2023-11-17T14:42:41.149Z,8.80
2023-11-17T14:45:12.552Z,8.59
2023-11-17T14:47:49.356Z,8.89
2023-11-17T14:50:19.073Z,8.93
2023-11-17T14:52:54.454Z,8.86
2023-11-17T14:55:26.443Z,8.77
2023-11-17T14:57:55.569Z,8.60
2023-11-17T15:00:40.185Z,8.54
2023-11-17T15:03:09.561Z,8.47
2023-11-17T15:05:39.863Z,8.47
2023-11-17T15:08:11.290Z,8.51
2023-11-17T15:10:43.681Z,8.58
2023-11-17T15:13:14.057Z,8.55
2023-11-17T15:15:43.848Z,8.79
2023-11-17T15:18:17.411Z,8.47
2023-11-17T15:20:48.379Z,8.49
2023-11-17T15:23:17.388Z,8.61
2023-11-17T15:25:48.042Z,8.35
2023-11-17T15:28:21.574Z,8.54
2023-11-17T15:30:55.852Z,8.63
2023-11-17T15:33:26.729Z,8.37
2023-11-17T15:35:57.760Z,8.64
2023-11-17T15:38:27.830Z,8.52
2023-11-17T15:40:59.530Z,8.45
2023-11-17T15:43:33.997Z,8.41
2023-11-17T15:46:04.216Z,8.61
2023-11-17T15:48:35.710Z,8.43
2023-11-17T15:51:07.850Z,8.42
2023-11-17T15:53:36.992Z,8.28
2023-11-17T15:56:10.341Z,8.13
2023-11-17T15:58:39.749Z,8.11
2023-11-17T16:01:10.361Z,8.12
2023-11-17T16:03:40.813Z,8.10
2023-11-17T16:06:11.757Z,8.13
2023-11-17T16:08:41.742Z,8.13
2023-11-17T16:11:13.038Z,8.28
2023-11-17T16:13:42.872Z,8.19
2023-11-17T16:16:15.551Z,7.87
2023-11-17T16:18:45.315Z,7.82
2023-11-17T16:21:14.981Z,7.91
2023-11-17T16:23:45.382Z,7.92
2023-11-17T16:26:16.137Z,7.72
2023-11-17T16:28:45.815Z,7.59
2023-11-17T16:31:17.455Z,7.64
2023-11-17T16:33:48.670Z,7.53
2023-11-17T16:36:19.571Z,7.40
2023-11-17T16:38:50.892Z,7.29
2023-11-17T16:41:22.279Z,7.48
2023-11-17T16:43:52.598Z,7.32
2023-11-17T16:46:22.696Z,7.31
2023-11-17T16:48:53.133Z,7.43
2023-11-17T16:51:22.811Z,7.51
2023-11-17T16:53:52.474Z,7.36
2023-11-17T16:56:22.806Z,7.37
2023-11-17T16:58:51.818Z,7.39
2023-11-17T17:01:21.314Z,7.24
2023-11-17T17:03:50.260Z,7.15
2023-11-17T17:06:20.231Z,7.14
2023-11-17T17:08:55.660Z,7.01
2023-11-17T17:11:26.119Z,7.00
2023-11-17T17:14:02.977Z,6.75
2023-11-17T17:16:42.394Z,6.80
2023-11-17T17:19:12.992Z,6.73
2023-11-17T17:21:42.422Z,6.67
2023-11-17T17:24:18.839Z,6.73
2023-11-17T17:26:51.693Z,6.72
2023-11-17T17:29:20.643Z,6.55
2023-11-17T17:31:49.868Z,6.52
2023-11-17T17:34:21.138Z,6.26
2023-11-17T17:36:50.606Z,6.46
2023-11-17T17:39:20.679Z,6.57
2023-11-17T17:41:51.244Z,6.28
2023-11-17T17:44:23.490Z,6.26
2023-11-17T17:46:54.064Z,6.28
2023-11-17T17:49:24.334Z,6.24
2023-11-17T17:51:54.030Z,5.91
2023-11-17T17:54:25.438Z,6.06
2023-11-17T17:56:59.436Z,5.97
2023-11-17T17:59:29.211Z,6.14
2023-11-17T18:01:58.441Z,6.10
2023-11-17T18:04:28.813Z,6.12
2023-11-17T18:06:58.199Z,6.02
2023-11-17T18:09:28.380Z,5.94
2023-11-17T18:11:57.279Z,6.02
2023-11-17T18:14:27.526Z,6.14
2023-11-17T18:16:57.351Z,6.08
2023-11-17T18:19:28.422Z,5.98
2023-11-17T18:21:58.279Z,6.09
2023-11-17T18:24:29.237Z,5.99
2023-11-17T18:27:00.873Z,6.09
2023-11-17T18:29:31.558Z,6.04
2023-11-17T18:32:01.593Z,5.90
2023-11-17T18:34:30.594Z,5.94
2023-11-17T18:37:00.835Z,5.88
2023-11-17T18:39:32.332Z,5.91
2023-11-17T18:42:07.654Z,5.86
2023-11-17T18:44:39.913Z,5.77
2023-11-17T18:47:08.834Z,5.71
2023-11-17T18:49:39.356Z,5.85
2023-11-17T18:52:09.820Z,5.91
2023-11-17T18:54:39.308Z,5.76
2023-11-17T18:57:08.723Z,5.88
2023-11-17T18:59:39.138Z,5.90
2023-11-17T19:02:08.834Z,5.82
2023-11-17T19:04:41.141Z,5.84
2023-11-17T19:07:11.948Z,5.67
2023-11-17T19:09:41.857Z,5.85
2023-11-17T19:12:12.922Z,5.80
2023-11-17T19:14:45.326Z,5.64
2023-11-17T19:17:16.564Z,5.71
2023-11-17T19:19:47.142Z,5.80
2023-11-17T19:22:18.331Z,5.91
2023-11-17T19:24:51.120Z,5.84
2023-11-17T19:27:22.460Z,5.76
2023-11-17T19:29:55.552Z,5.43
2023-11-17T19:32:27.331Z,5.73
2023-11-17T19:34:59.847Z,5.63
2023-11-17T19:37:30.558Z,5.59
2023-11-17T19:39:59.281Z,5.55
2023-11-17T19:42:30.024Z,5.39
2023-11-17T19:45:02.617Z,5.60
2023-11-17T19:47:34.116Z,5.73
2023-11-17T19:50:14.420Z,5.55
2023-11-17T19:52:47.284Z,5.74
2023-11-17T19:55:17.091Z,5.66
2023-11-17T19:57:48.847Z,5.58
2023-11-17T20:03:08.394Z,5.67
2023-11-17T20:05:38.892Z,5.80
2023-11-17T20:08:15.068Z,5.77
2023-11-17T20:10:47.166Z,5.59
2023-11-17T20:13:16.823Z,5.58
2023-11-17T20:15:49.109Z,5.60
2023-11-17T20:18:18.749Z,5.46
2023-11-17T20:20:49.224Z,5.36
2023-11-17T20:23:19.279Z,5.53
2023-11-17T20:25:49.123Z,5.43
2023-11-17T20:28:18.397Z,5.36
2023-11-17T20:30:49.908Z,5.45
2023-11-17T20:33:21.501Z,5.48
2023-11-17T20:35:51.027Z,5.42
2023-11-17T20:38:20.507Z,5.37
2023-11-17T20:40:50.873Z,5.63
2023-11-17T20:43:21.038Z,5.60
2023-11-17T20:45:52.654Z,5.44
2023-11-17T20:48:22.896Z,5.39
2023-11-17T20:50:57.990Z,5.50
2023-11-17T20:53:29.114Z,5.41
2023-11-17T20:55:58.044Z,5.55
2023-11-17T20:58:31.421Z,5.42
2023-11-17T21:01:09.289Z,5.56
2023-11-17T21:03:41.199Z,5.53
2023-11-17T21:06:10.370Z,5.42
2023-11-17T21:08:40.489Z,5.28
2023-11-17T21:11:10.464Z,5.48
2023-11-17T21:13:41.338Z,5.46
2023-11-17T21:16:14.016Z,5.59
2023-11-17T21:18:44.102Z,5.64
2023-11-17T21:21:14.007Z,5.68
2023-11-17T21:23:45.176Z,5.52
2023-11-17T21:26:17.157Z,5.63
2023-11-17T21:28:46.199Z,5.67
2023-11-17T21:31:16.948Z,5.78
2023-11-17T21:33:47.248Z,5.61
2023-11-17T21:36:17.766Z,5.66
2023-11-17T21:38:48.618Z,5.85
2023-11-17T21:41:17.757Z,5.84
2023-11-17T21:43:46.875Z,5.33
2023-11-17T21:46:19.163Z,5.61
2023-11-17T21:48:48.677Z,5.46
2023-11-17T21:51:18.392Z,5.44
2023-11-17T21:53:47.106Z,5.48
2023-11-17T21:56:21.870Z,5.34
2023-11-17T21:58:51.571Z,5.32
2023-11-17T22:01:22.261Z,5.53
2023-11-17T22:03:51.896Z,5.64
2023-11-17T22:06:24.231Z,5.76
2023-11-17T22:08:54.407Z,5.67
2023-11-17T22:11:23.678Z,5.73
2023-11-17T22:13:52.711Z,5.40
2023-11-17T22:16:23.401Z,5.54
2023-11-17T22:18:53.936Z,5.46
2023-11-17T22:21:23.283Z,5.41
2023-11-17T22:23:53.057Z,5.44
2023-11-17T22:26:27.007Z,5.40
2023-11-17T22:28:56.276Z,5.32
2023-11-17T22:31:27.016Z,5.36
2023-11-17T22:34:00.368Z,5.34
2023-11-17T22:36:29.206Z,5.40
2023-11-17T22:38:58.418Z,5.24
2023-11-17T22:41:27.592Z,5.28
2023-11-17T22:43:57.193Z,5.27
2023-11-17T22:46:29.242Z,5.26
2023-11-17T22:48:57.957Z,5.06
2023-11-17T22:51:27.253Z,5.20
2023-11-17T22:53:57.252Z,4.98
2023-11-17T22:56:26.667Z,5.11
2023-11-17T22:58:56.370Z,5.09
2023-11-17T23:01:29.422Z,5.13
2023-11-17T23:04:00.408Z,5.10
2023-11-17T23:06:32.378Z,5.07
2023-11-17T23:09:02.641Z,5.23
2023-11-17T23:11:31.487Z,5.28
2023-11-17T23:14:00.250Z,5.40
2023-11-17T23:16:30.405Z,5.39
2023-11-17T23:19:08.068Z,5.62
2023-11-17T23:21:45.345Z,5.68
2023-11-17T23:24:14.368Z,5.70
2023-11-17T23:26:43.478Z,5.56
2023-11-17T23:29:12.363Z,5.48
2023-11-17T23:31:41.793Z,5.31
2023-11-17T23:34:13.805Z,5.49
2023-11-17T23:36:42.591Z,5.55
2023-11-17T23:39:15.443Z,5.43
2023-11-17T23:41:47.011Z,5.58
2023-11-17T23:44:16.657Z,5.85
2023-11-17T23:46:46.006Z,5.78
2023-11-17T23:49:17.400Z,5.31
2023-11-17T23:51:47.561Z,5.78
2023-11-17T23:54:16.884Z,6.00
2023-11-17T23:56:46.335Z,5.91
2023-11-17T23:59:15.410Z,5.77
